createdAt,value
2022-12-18T00:01:26.471Z,40.15
2022-12-18T00:03:55.380Z,36.60
2022-12-18T00:06:23.737Z,34.47
2022-12-18T00:08:52.000Z,34.53
2022-12-18T00:11:21.733Z,34.10
2022-12-18T00:13:49.509Z,32.15
2022-12-18T00:16:21.425Z,33.42
2022-12-18T00:18:50.140Z,33.13
2022-12-18T00:21:17.276Z,33.67
2022-12-18T00:23:45.658Z,39.40
2022-12-18T00:26:24.806Z,27.65
2022-12-18T00:28:53.114Z,36.95
2022-12-18T00:31:22.549Z,34.13
2022-12-18T00:33:53.849Z,36.15
2022-12-18T00:36:25.334Z,38.38
2022-12-18T00:38:54.483Z,32.90
2022-12-18T00:41:40.424Z,41.88
2022-12-18T00:44:10.305Z,40.22
2022-12-18T00:46:37.365Z,36.85
2022-12-18T00:49:04.960Z,29.98
2022-12-18T00:51:32.424Z,33.20
2022-12-18T00:53:59.504Z,38.20
2022-12-18T00:56:26.911Z,43.92
2022-12-18T00:58:54.656Z,41.35
2022-12-18T01:01:21.884Z,37.72
2022-12-18T01:03:49.171Z,32.40
2022-12-18T01:06:17.377Z,36.80
2022-12-18T01:08:44.543Z,33.38
2022-12-18T01:11:18.673Z,35.40
2022-12-18T01:13:46.230Z,35.03
2022-12-18T01:16:14.636Z,40.05
2022-12-18T01:18:42.103Z,36.97
2022-12-18T01:21:11.413Z,34.35
2022-12-18T01:23:39.222Z,33.35
2022-12-18T01:26:12.843Z,38.25
2022-12-18T01:28:40.985Z,36.78
2022-12-18T01:31:20.345Z,35.75
2022-12-18T01:33:52.163Z,39.17
2022-12-18T01:36:31.251Z,34.17
2022-12-18T01:39:01.439Z,39.78
2022-12-18T01:41:53.499Z,33.88
2022-12-18T01:44:58.708Z,36.97
2022-12-18T01:47:47.678Z,37.03
2022-12-18T01:50:19.479Z,37.38
2022-12-18T01:52:51.351Z,36.35
2022-12-18T01:55:22.021Z,43.10
2022-12-18T01:57:50.949Z,35.15
2022-12-18T02:00:20.232Z,37.85
2022-12-18T02:02:48.249Z,33.22
2022-12-18T02:05:19.392Z,39.05
2022-12-18T02:08:04.658Z,38.45
2022-12-18T02:10:41.933Z,30.58
2022-12-18T02:13:43.094Z,38.28
2022-12-18T02:16:36.878Z,35.97
2022-12-18T02:19:17.610Z,36.17
2022-12-18T02:22:04.133Z,34.58
2022-12-18T02:24:39.232Z,31.83
2022-12-18T02:27:07.861Z,36.03
2022-12-18T02:29:44.163Z,43.65
2022-12-18T02:32:16.428Z,39.25
2022-12-18T02:34:44.559Z,36.50
2022-12-18T02:37:16.232Z,37.92
2022-12-18T02:39:45.973Z,34.35
2022-12-18T02:42:13.654Z,34.88
2022-12-18T02:44:49.058Z,38.90
2022-12-18T02:47:20.141Z,36.58
2022-12-18T02:50:03.581Z,35.22
2022-12-18T02:52:49.988Z,29.77
2022-12-18T02:55:59.857Z,32.42
2022-12-18T02:58:28.669Z,27.17
2022-12-18T03:01:03.380Z,34.08
2022-12-18T03:03:42.021Z,34.83
2022-12-18T03:06:19.932Z,31.75
2022-12-18T03:08:52.139Z,33.35
2022-12-18T03:11:42.297Z,40.35
2022-12-18T03:14:11.786Z,31.85
2022-12-18T03:16:39.984Z,48.42
2022-12-18T03:19:14.062Z,39.50
2022-12-18T03:21:46.014Z,41.88
2022-12-18T03:24:14.956Z,33.33
2022-12-18T03:26:45.401Z,39.28
2022-12-18T03:29:22.572Z,48.50
2022-12-18T03:31:56.997Z,40.78
2022-12-18T03:34:36.948Z,34.45
2022-12-18T03:37:06.587Z,38.42
2022-12-18T03:39:35.506Z,45.92
2022-12-18T03:42:15.845Z,44.10
2022-12-18T03:44:52.868Z,35.88
2022-12-18T03:47:33.659Z,40.80
2022-12-18T03:50:15.665Z,33.28
2022-12-18T03:52:50.768Z,35.47
2022-12-18T03:55:19.237Z,37.80
2022-12-18T03:57:47.092Z,36.90
2022-12-18T04:00:15.970Z,30.27
2022-12-18T04:02:53.773Z,31.33
2022-12-18T04:05:22.080Z,38.13
2022-12-18T04:07:51.030Z,39.20
2022-12-18T04:10:19.255Z,39.70
2022-12-18T04:12:47.030Z,38.45
2022-12-18T04:15:15.035Z,32.17
2022-12-18T04:17:49.078Z,30.70
2022-12-18T04:20:17.437Z,37.95
2022-12-18T04:22:45.301Z,46.85
2022-12-18T04:25:14.400Z,43.30
2022-12-18T04:27:44.489Z,39.80
2022-12-18T04:30:12.851Z,47.90
2022-12-18T04:32:40.048Z,52.53
2022-12-18T04:35:11.524Z,41.40
2022-12-18T04:37:39.928Z,49.03
2022-12-18T04:40:08.070Z,50.47
2022-12-18T04:42:37.711Z,49.33
2022-12-18T04:45:05.944Z,53.10
2022-12-18T04:47:33.595Z,46.22
2022-12-18T04:50:00.753Z,60.10
2022-12-18T04:52:28.146Z,55.12
2022-12-18T04:54:58.411Z,43.15
2022-12-18T04:57:25.562Z,46.47
2022-12-18T04:59:52.687Z,38.83
2022-12-18T05:02:20.868Z,40.60
2022-12-18T05:04:48.083Z,40.20
2022-12-18T05:07:15.354Z,47.83
2022-12-18T05:09:42.826Z,58.78
2022-12-18T05:12:09.954Z,53.45
2022-12-18T05:14:37.144Z,49.67
2022-12-18T05:17:04.587Z,46.95
2022-12-18T05:19:31.778Z,40.33
2022-12-18T05:21:59.063Z,48.97
2022-12-18T05:24:26.461Z,57.92
2022-12-18T05:26:53.622Z,50.60
2022-12-18T05:29:20.806Z,49.95
2022-12-18T05:31:48.263Z,61.97
2022-12-18T05:34:15.627Z,98.05
2022-12-18T05:36:42.924Z,101.20
2022-12-18T05:39:10.737Z,99.15
2022-12-18T05:41:37.883Z,91.40
2022-12-18T05:44:05.028Z,63.80
2022-12-18T05:46:33.350Z,50.85
2022-12-18T05:49:02.217Z,52.42
2022-12-18T05:51:29.482Z,60.20
2022-12-18T05:53:56.938Z,55.55
2022-12-18T05:56:24.570Z,45.50
2022-12-18T05:58:55.614Z,72.35
2022-12-18T06:01:26.096Z,68.97
2022-12-18T06:03:53.650Z,44.35
2022-12-18T06:06:26.438Z,48.17
2022-12-18T06:08:54.672Z,76.30
2022-12-18T06:11:25.286Z,61.70
2022-12-18T06:13:59.075Z,48.40
2022-12-18T06:16:28.361Z,38.30
2022-12-18T06:18:59.651Z,46.85
2022-12-18T06:21:28.623Z,57.58
2022-12-18T06:23:55.890Z,57.90
2022-12-18T06:26:27.839Z,56.85
2022-12-18T06:28:55.939Z,61.00
2022-12-18T06:31:23.168Z,57.55
2022-12-18T06:33:50.409Z,81.57
2022-12-18T06:36:18.088Z,92.88
2022-12-18T06:38:45.275Z,100.55
2022-12-18T06:41:15.574Z,92.75
2022-12-18T06:43:43.974Z,93.85
2022-12-18T06:46:11.400Z,105.75
2022-12-18T06:48:38.651Z,92.15
2022-12-18T06:51:06.241Z,103.07
2022-12-18T06:53:33.912Z,83.62
2022-12-18T06:56:09.889Z,91.10
2022-12-18T06:58:41.645Z,110.53
2022-12-18T07:01:11.176Z,93.30
2022-12-18T07:03:40.922Z,61.78
2022-12-18T07:06:15.087Z,67.87
2022-12-18T07:08:42.746Z,65.87
2022-12-18T07:11:09.927Z,94.30
2022-12-18T07:13:37.323Z,55.60
2022-12-18T07:16:17.067Z,52.25
2022-12-18T07:18:45.824Z,57.15
2022-12-18T07:21:19.097Z,60.65
2022-12-18T07:23:48.956Z,78.82
2022-12-18T07:26:18.904Z,73.35
2022-12-18T07:28:46.071Z,58.97
2022-12-18T07:31:15.646Z,71.20
2022-12-18T07:33:43.863Z,63.65
2022-12-18T07:36:11.693Z,53.72
2022-12-18T07:38:38.956Z,64.57
2022-12-18T07:41:08.554Z,48.70
2022-12-18T07:43:36.155Z,50.17
2022-12-18T07:46:03.643Z,61.55
2022-12-18T07:48:31.463Z,50.58
2022-12-18T07:51:03.656Z,54.15
2022-12-18T07:53:31.923Z,52.42
2022-12-18T07:56:26.143Z,52.97
2022-12-18T07:58:47.728Z,48.67
2022-12-18T08:01:16.211Z,44.63
2022-12-18T08:03:44.587Z,46.22
2022-12-18T08:06:11.648Z,48.80
2022-12-18T08:08:38.742Z,52.10
2022-12-18T08:11:06.113Z,43.67
2022-12-18T08:13:33.184Z,50.80
2022-12-18T08:16:05.933Z,52.20
2022-12-18T08:18:37.638Z,55.53
2022-12-18T08:21:24.029Z,52.30
2022-12-18T08:23:53.527Z,49.03
2022-12-18T08:26:21.241Z,46.13
2022-12-18T08:28:50.038Z,47.80
2022-12-18T08:31:19.545Z,47.97
2022-12-18T08:33:46.803Z,42.17
2022-12-18T08:36:14.094Z,52.35
2022-12-18T08:38:41.436Z,52.33
2022-12-18T08:41:12.145Z,56.15
2022-12-18T08:43:58.233Z,45.60
2022-12-18T08:46:27.446Z,46.92
2022-12-18T08:48:56.565Z,48.85
2022-12-18T08:51:23.843Z,38.72
2022-12-18T08:53:51.215Z,44.80
2022-12-18T08:56:20.129Z,53.90
2022-12-18T08:58:47.528Z,59.00
2022-12-18T09:01:14.971Z,50.88
2022-12-18T09:03:42.672Z,50.08
2022-12-18T09:06:10.299Z,42.62
2022-12-18T09:08:38.204Z,47.05
2022-12-18T09:11:05.662Z,49.65
2022-12-18T09:13:32.873Z,46.80
2022-12-18T09:16:00.196Z,49.50
2022-12-18T09:18:27.291Z,39.75
2022-12-18T09:20:54.398Z,61.63
2022-12-18T09:23:22.339Z,39.88
2022-12-18T09:25:49.734Z,50.70
2022-12-18T09:28:20.251Z,40.30
2022-12-18T09:30:50.149Z,49.85
2022-12-18T09:33:18.268Z,41.30
2022-12-18T09:35:46.482Z,45.10
2022-12-18T09:38:19.263Z,45.10
2022-12-18T09:40:49.741Z,42.33
2022-12-18T09:43:25.538Z,55.22
2022-12-18T09:45:56.648Z,47.33
2022-12-18T09:48:33.241Z,54.42
2022-12-18T09:51:05.147Z,51.05
2022-12-18T09:53:34.382Z,50.08
2022-12-18T09:56:03.018Z,50.10
2022-12-18T09:58:30.031Z,47.03
2022-12-18T10:00:58.133Z,56.20
2022-12-18T10:03:25.661Z,51.22
2022-12-18T10:06:08.098Z,58.35
2022-12-18T10:08:42.302Z,50.30
2022-12-18T10:11:30.272Z,66.97
2022-12-18T10:14:26.694Z,48.30
2022-12-18T10:16:59.636Z,48.97
2022-12-18T10:19:51.897Z,44.13
2022-12-18T10:23:18.063Z,79.22
2022-12-18T10:26:06.089Z,45.95
2022-12-18T10:28:35.092Z,49.15
2022-12-18T10:31:03.108Z,46.00
2022-12-18T10:33:32.866Z,52.78
2022-12-18T10:36:01.088Z,44.88
2022-12-18T10:38:30.638Z,46.53
2022-12-18T10:41:00.587Z,42.47
2022-12-18T10:43:30.433Z,42.88
2022-12-18T10:46:06.792Z,42.03
2022-12-18T10:49:01.086Z,50.28
2022-12-18T10:51:31.491Z,49.05
2022-12-18T10:54:06.213Z,41.03
2022-12-18T10:56:36.056Z,53.33
2022-12-18T10:59:05.877Z,45.20
2022-12-18T11:01:50.028Z,46.63
2022-12-18T11:04:21.955Z,49.30
2022-12-18T11:07:05.354Z,43.28
2022-12-18T11:09:34.700Z,40.25
2022-12-18T11:12:11.226Z,43.60
2022-12-18T11:14:50.165Z,50.38
2022-12-18T11:17:25.879Z,43.42
2022-12-18T11:19:55.424Z,35.08
2022-12-18T11:22:27.303Z,34.47
2022-12-18T11:25:32.598Z,40.35
2022-12-18T11:28:01.005Z,44.13
2022-12-18T11:30:37.156Z,42.10
2022-12-18T11:33:12.508Z,41.00
2022-12-18T11:35:57.827Z,42.90
2022-12-18T11:38:27.977Z,46.67
2022-12-18T11:41:12.952Z,40.08
2022-12-18T11:43:46.221Z,35.97
2022-12-18T11:46:20.020Z,41.20
2022-12-18T11:51:39.277Z,37.03
2022-12-18T11:54:14.773Z,52.00
2022-12-18T11:56:48.844Z,39.55
2022-12-18T11:59:35.023Z,37.45
2022-12-18T12:02:39.642Z,56.17
2022-12-18T12:05:13.284Z,37.35
2022-12-18T12:08:03.420Z,43.30
2022-12-18T12:10:58.394Z,33.60
2022-12-18T12:13:25.472Z,35.40
2022-12-18T12:16:01.996Z,34.45
2022-12-18T12:18:53.734Z,36.65
2022-12-18T12:21:21.112Z,56.25
2022-12-18T12:24:02.275Z,36.72
2022-12-18T12:26:40.184Z,34.58
2022-12-18T12:29:44.861Z,42.62
2022-12-18T12:32:27.185Z,45.28
2022-12-18T12:35:46.128Z,40.03
2022-12-18T12:38:19.381Z,37.30
2022-12-18T12:41:02.828Z,30.25
2022-12-18T12:43:49.478Z,35.10
2022-12-18T12:46:20.949Z,37.20
2022-12-18T12:49:05.338Z,37.63
2022-12-18T12:51:41.603Z,44.17
2022-12-18T12:54:27.270Z,33.67
2022-12-18T12:57:32.317Z,30.58
2022-12-18T13:00:09.015Z,40.92
2022-12-18T13:02:41.067Z,58.10
2022-12-18T13:05:40.149Z,47.05
2022-12-18T13:08:13.094Z,70.87
2022-12-18T13:10:42.578Z,45.00
2022-12-18T13:13:10.976Z,41.13
2022-12-18T13:15:44.072Z,40.70
2022-12-18T13:18:11.534Z,41.83
2022-12-18T13:20:44.716Z,46.95
2022-12-18T13:23:21.433Z,38.45
2022-12-18T13:28:22.647Z,46.92
2022-12-18T13:30:55.849Z,40.95
2022-12-18T13:33:24.664Z,59.97
2022-12-18T13:35:53.706Z,61.47
2022-12-18T13:38:32.926Z,41.37
2022-12-18T13:41:01.963Z,40.20
2022-12-18T13:43:48.673Z,45.95
2022-12-18T13:46:27.965Z,40.92
2022-12-18T13:49:02.176Z,65.72
2022-12-18T13:51:32.055Z,45.22
2022-12-18T13:54:18.715Z,100.72
2022-12-18T13:56:47.759Z,48.67
2022-12-18T13:59:17.497Z,61.22
2022-12-18T14:01:47.032Z,58.75
2022-12-18T14:04:32.353Z,65.68
2022-12-18T14:09:55.593Z,95.43
2022-12-18T14:12:50.022Z,80.10
2022-12-18T14:15:26.742Z,98.22
2022-12-18T14:17:58.755Z,98.80
2022-12-18T14:20:27.964Z,93.43
2022-12-18T14:22:57.108Z,120.22
2022-12-18T14:25:30.293Z,137.27
2022-12-18T14:28:09.429Z,141.18
2022-12-18T14:30:42.449Z,145.02
2022-12-18T14:33:09.542Z,155.60
2022-12-18T14:35:58.509Z,129.77
2022-12-18T14:38:32.111Z,135.82
2022-12-18T14:41:07.643Z,82.72
2022-12-18T14:43:36.544Z,98.47
2022-12-18T14:46:06.174Z,119.40
2022-12-18T14:48:42.792Z,133.65
2022-12-18T14:51:19.094Z,120.72
2022-12-18T14:54:02.682Z,126.30
2022-12-18T14:56:38.002Z,119.53
2022-12-18T14:59:07.442Z,80.55
2022-12-18T15:01:39.907Z,105.65
2022-12-18T15:04:26.438Z,100.18
2022-12-18T15:07:12.706Z,111.78
2022-12-18T15:09:41.371Z,103.57
2022-12-18T15:12:27.696Z,89.82
2022-12-18T15:14:54.902Z,107.30
2022-12-18T15:17:24.480Z,77.40
2022-12-18T15:19:59.283Z,83.30
2022-12-18T15:22:26.641Z,78.27
2022-12-18T15:24:55.179Z,69.68
2022-12-18T15:27:25.309Z,126.62
2022-12-18T15:30:08.820Z,146.82
2022-12-18T15:32:37.533Z,115.22
2022-12-18T15:35:10.843Z,94.72
2022-12-18T15:37:41.723Z,74.97
2022-12-18T15:40:14.031Z,73.78
2022-12-18T15:43:00.075Z,112.07
2022-12-18T15:45:28.039Z,123.85
2022-12-18T15:47:55.241Z,106.18
2022-12-18T15:50:22.762Z,116.88
2022-12-18T15:52:52.102Z,144.23
2022-12-18T15:55:42.960Z,146.20
2022-12-18T15:58:11.303Z,107.90
2022-12-18T16:00:40.666Z,114.62
2022-12-18T16:03:09.544Z,138.18
2022-12-18T16:05:36.947Z,214.38
2022-12-18T16:08:04.341Z,133.50
2022-12-18T16:10:31.831Z,87.22
2022-12-18T16:12:58.963Z,121.15
2022-12-18T16:15:26.100Z,145.02
2022-12-18T16:17:53.734Z,103.10
2022-12-18T16:20:22.733Z,66.03
2022-12-18T16:22:50.382Z,80.93
2022-12-18T16:25:22.676Z,115.22
2022-12-18T16:27:50.226Z,153.00
2022-12-18T16:30:21.486Z,127.62
2022-12-18T16:32:48.669Z,263.08
2022-12-18T16:35:17.385Z,191.00
2022-12-18T16:37:45.241Z,110.57
2022-12-18T16:40:14.360Z,136.85
2022-12-18T16:42:42.830Z,76.87
2022-12-18T16:45:13.664Z,75.25
2022-12-18T16:47:41.049Z,80.53
2022-12-18T16:50:09.051Z,65.28
2022-12-18T16:52:36.810Z,84.93
2022-12-18T16:55:04.322Z,79.35
2022-12-18T16:57:31.495Z,74.05
2022-12-18T17:00:04.752Z,82.55
2022-12-18T17:02:33.635Z,222.40
2022-12-18T17:05:01.445Z,173.10
2022-12-18T17:07:29.188Z,160.40
2022-12-18T17:09:56.348Z,140.18
2022-12-18T17:12:23.846Z,120.90
2022-12-18T17:14:51.001Z,189.32
2022-12-18T17:17:21.268Z,82.40
2022-12-18T17:19:49.205Z,121.30
2022-12-18T17:22:16.274Z,142.45
2022-12-18T17:24:43.367Z,104.03
2022-12-18T17:27:10.751Z,86.05
2022-12-18T17:29:41.272Z,182.62
2022-12-18T17:32:12.628Z,98.00
2022-12-18T17:34:40.971Z,95.00
2022-12-18T17:37:08.511Z,65.43
2022-12-18T17:39:35.991Z,82.93
2022-12-18T17:42:03.863Z,59.80
2022-12-18T17:44:33.808Z,69.85
2022-12-18T17:47:01.537Z,72.60
2022-12-18T17:49:28.849Z,78.12
2022-12-18T17:51:55.959Z,107.37
2022-12-18T17:54:23.288Z,141.93
2022-12-18T17:56:50.425Z,127.57
2022-12-18T17:59:17.579Z,119.32
2022-12-18T18:01:46.061Z,106.30
2022-12-18T18:04:13.859Z,86.00
2022-12-18T18:06:41.150Z,82.00
2022-12-18T18:09:12.254Z,81.55
2022-12-18T18:12:04.004Z,118.22
2022-12-18T18:14:31.625Z,68.40
2022-12-18T18:17:04.063Z,82.32
2022-12-18T18:19:32.909Z,85.15
2022-12-18T18:22:01.428Z,83.80
2022-12-18T18:24:29.446Z,73.18
2022-12-18T18:26:58.850Z,64.43
2022-12-18T18:29:28.936Z,78.40
2022-12-18T18:31:56.908Z,78.80
2022-12-18T18:34:29.573Z,72.97
2022-12-18T18:36:57.045Z,77.68
2022-12-18T18:39:24.350Z,90.97
2022-12-18T18:41:51.762Z,85.70
2022-12-18T18:44:24.876Z,90.32
2022-12-18T18:46:55.088Z,85.15
2022-12-18T18:49:24.331Z,96.70
2022-12-18T18:51:51.455Z,121.85
2022-12-18T18:54:20.843Z,115.90
2022-12-18T18:59:38.848Z,117.57
2022-12-18T19:02:06.956Z,137.18
2022-12-18T19:04:34.416Z,134.80
2022-12-18T19:07:01.739Z,115.68
2022-12-18T19:09:29.462Z,111.75
2022-12-18T19:12:16.082Z,113.35
2022-12-18T19:14:44.329Z,127.32
2022-12-18T19:17:11.564Z,139.98
2022-12-18T19:19:39.563Z,131.10
2022-12-18T19:22:07.439Z,88.28
2022-12-18T19:24:35.717Z,74.32
2022-12-18T19:27:03.157Z,76.12
2022-12-18T19:29:32.028Z,69.18
2022-12-18T19:31:59.297Z,78.15
2022-12-18T19:34:26.899Z,73.53
2022-12-18T19:36:59.809Z,100.50
2022-12-18T19:39:27.638Z,109.55
2022-12-18T19:41:55.080Z,112.00
2022-12-18T19:44:22.229Z,102.22
2022-12-18T19:46:52.545Z,78.65
2022-12-18T19:49:21.314Z,83.25
2022-12-18T19:51:50.350Z,95.62
2022-12-18T19:54:17.975Z,76.95
2022-12-18T19:56:46.156Z,78.20
2022-12-18T19:59:14.005Z,82.15
2022-12-18T20:01:41.620Z,64.15
2022-12-18T20:04:09.301Z,66.43
2022-12-18T20:06:49.853Z,90.60
2022-12-18T20:09:17.971Z,69.87
2022-12-18T20:11:46.610Z,88.15
2022-12-18T20:14:16.855Z,106.25
2022-12-18T20:16:51.804Z,154.07
2022-12-18T20:19:19.302Z,116.60
2022-12-18T20:21:46.919Z,75.32
2022-12-18T20:24:14.560Z,92.72
2022-12-18T20:26:41.768Z,95.82
2022-12-18T20:29:08.985Z,79.50
2022-12-18T20:31:36.458Z,85.60
2022-12-18T20:34:04.894Z,90.60
2022-12-18T20:36:34.269Z,98.18
2022-12-18T20:39:07.612Z,99.87
2022-12-18T20:41:38.511Z,97.37
2022-12-18T20:44:19.031Z,116.68
2022-12-18T20:46:53.609Z,127.30
2022-12-18T20:49:21.107Z,123.05
2022-12-18T20:51:53.910Z,141.98
2022-12-18T20:54:22.373Z,222.45
2022-12-18T20:56:49.685Z,130.65
2022-12-18T20:59:17.520Z,188.12
2022-12-18T21:01:48.191Z,165.88
2022-12-18T21:04:18.587Z,143.87
2022-12-18T21:07:00.577Z,139.77
2022-12-18T21:09:30.672Z,157.15
2022-12-18T21:12:25.376Z,204.20
2022-12-18T21:14:52.463Z,168.35
2022-12-18T21:17:19.803Z,170.30
2022-12-18T21:19:46.868Z,162.45
2022-12-18T21:22:14.799Z,154.73
2022-12-18T21:24:42.466Z,148.25
2022-12-18T21:27:09.960Z,133.77
2022-12-18T21:29:40.970Z,141.20
2022-12-18T21:32:09.704Z,135.43
2022-12-18T21:34:37.287Z,142.70
2022-12-18T21:37:04.518Z,124.72
2022-12-18T21:39:32.698Z,135.55
2022-12-18T21:42:20.840Z,134.95
2022-12-18T21:44:49.183Z,152.35
2022-12-18T21:47:22.838Z,136.52
2022-12-18T21:49:52.600Z,121.65
2022-12-18T21:52:27.300Z,134.05
2022-12-18T21:55:06.133Z,136.60
2022-12-18T21:57:35.724Z,180.55
2022-12-18T22:00:04.506Z,138.77
2022-12-18T22:02:39.706Z,127.03
2022-12-18T22:05:07.715Z,120.07
2022-12-18T22:07:34.771Z,131.60
2022-12-18T22:10:02.165Z,137.98
2022-12-18T22:12:43.138Z,122.57
2022-12-18T22:15:14.762Z,129.82
2022-12-18T22:17:57.554Z,129.55
2022-12-18T22:20:29.781Z,115.80
2022-12-18T22:22:58.148Z,117.75
2022-12-18T22:25:25.256Z,123.80
2022-12-18T22:28:11.018Z,104.28
2022-12-18T22:30:38.518Z,129.18
2022-12-18T22:33:05.597Z,145.43
2022-12-18T22:35:32.631Z,117.72
2022-12-18T22:38:00.462Z,102.28
2022-12-18T22:40:28.387Z,124.80
2022-12-18T22:42:56.008Z,109.05
2022-12-18T22:45:24.705Z,105.60
2022-12-18T22:47:51.943Z,122.40
2022-12-18T22:50:19.132Z,127.95
2022-12-18T22:52:46.489Z,102.57
2022-12-18T22:55:13.578Z,106.82
2022-12-18T22:57:42.084Z,94.30
2022-12-18T23:00:17.874Z,104.00
2022-12-18T23:03:00.296Z,94.40
2022-12-18T23:05:31.867Z,85.12
2022-12-18T23:07:59.417Z,134.07
2022-12-18T23:10:26.639Z,101.68
2022-12-18T23:12:56.912Z,92.55
2022-12-18T23:15:27.915Z,96.20
2022-12-18T23:17:57.515Z,94.57
2022-12-18T23:20:25.895Z,92.90
2022-12-18T23:22:53.411Z,126.70
2022-12-18T23:25:20.740Z,100.32
2022-12-18T23:27:47.875Z,110.78
2022-12-18T23:30:15.631Z,105.53
2022-12-18T23:32:43.047Z,95.35
2022-12-18T23:35:10.165Z,93.50
2022-12-18T23:37:58.537Z,85.95
2022-12-18T23:40:27.219Z,95.25
2022-12-18T23:42:54.285Z,76.12
2022-12-18T23:45:21.332Z,87.72
2022-12-18T23:47:51.029Z,89.15
2022-12-18T23:50:18.479Z,89.35
2022-12-18T23:52:45.554Z,89.20
2022-12-18T23:55:12.885Z,83.05
2022-12-18T23:57:39.948Z,78.12
